Terminal Aerodrome Forecast
Issued by NWS

Home | Current Version | Previous Version | Text Only | Print | Product List | Glossary On
Versions: 1 2 3 4 5 6 7 8 9 10 11 12 13 14 15 16 17 18 19 20 21 22 23 24 25 26
000
FTUS45 KGJT 290538
TAFDRO
TAF
KDRO 290538Z 2906/3006 34005KT P6SM VCSH OVC070
     FM291000 16004KT P6SM VCSH BKN080
     FM291200 00000KT P6SM VCSH BKN090
     FM291800 23006KT P6SM VCSH BKN080
     FM292000 26009KT P6SM VCSH BKN060
     FM292200 29011KT P6SM VCSH BKN070
     FM292300 31011KT P6SM BKN070
     FM300000 28011KT P6SM BKN090=

USA.gov is the U.S. government's official web portal to all federal, state and local government web resources and services.